createdAt,value
2019-02-05T00:00:04.508Z,10.55
2019-02-05T00:00:36.029Z,10.65
2019-02-05T00:01:03.169Z,10.40
2019-02-05T00:01:27.568Z,10.32
2019-02-05T00:01:50.468Z,11.20
2019-02-05T00:02:13.329Z,10.58
2019-02-05T00:02:36.243Z,10.03
2019-02-05T00:02:59.069Z,10.40
2019-02-05T00:03:22.849Z,10.25
2019-02-05T00:03:45.790Z,10.25
2019-02-05T00:04:08.650Z,10.65
2019-02-05T00:04:31.569Z,10.53
2019-02-05T00:04:54.529Z,10.40
2019-02-05T00:05:18.829Z,10.88
2019-02-05T00:05:41.708Z,10.72
2019-02-05T00:06:04.809Z,10.58
2019-02-05T00:06:27.729Z,10.35
2019-02-05T00:06:50.648Z,10.28
2019-02-05T00:07:13.509Z,10.65
2019-02-05T00:07:36.788Z,10.43
2019-02-05T00:07:59.731Z,10.85
2019-02-05T00:08:22.649Z,10.40
2019-02-05T00:08:45.630Z,10.15
2019-02-05T00:09:08.529Z,10.45
2019-02-05T00:09:31.431Z,10.78
2019-02-05T00:09:54.568Z,11.65
2019-02-05T00:10:17.588Z,10.78
2019-02-05T00:10:40.489Z,10.70
2019-02-05T00:11:03.348Z,10.55
2019-02-05T00:11:26.689Z,11.10
2019-02-05T00:11:51.629Z,11.00
2019-02-05T00:12:15.229Z,10.75
2019-02-05T00:12:38.148Z,10.32
2019-02-05T00:13:00.948Z,10.78
2019-02-05T00:13:24.991Z,10.28
2019-02-05T00:13:47.848Z,10.68
2019-02-05T00:14:11.287Z,10.63
2019-02-05T00:14:35.088Z,10.60
2019-02-05T00:14:58.009Z,10.18
2019-02-05T00:15:20.929Z,10.80
2019-02-05T00:15:44.291Z,10.10
2019-02-05T00:16:07.252Z,10.18
2019-02-05T00:16:30.169Z,10.50
2019-02-05T00:16:53.828Z,10.95
2019-02-05T00:17:16.868Z,11.18
2019-02-05T00:17:39.769Z,10.68
2019-02-05T00:18:03.169Z,10.35
2019-02-05T00:18:26.108Z,10.45
2019-02-05T00:18:51.544Z,11.00
2019-02-05T00:19:13.789Z,11.15
2019-02-05T00:19:36.646Z,10.55
2019-02-05T00:19:59.492Z,11.10
2019-02-05T00:20:22.545Z,11.12
2019-02-05T00:20:45.428Z,10.82
2019-02-05T00:21:08.609Z,10.60
2019-02-05T00:21:31.549Z,10.63
2019-02-05T00:21:54.548Z,11.00
2019-02-05T00:22:17.412Z,10.43
2019-02-05T00:22:41.130Z,11.03
2019-02-05T00:23:04.008Z,11.18
2019-02-05T00:23:26.949Z,11.30
2019-02-05T00:23:49.809Z,11.03
2019-02-05T00:24:12.789Z,10.80
2019-02-05T00:24:36.468Z,10.72
2019-02-05T00:24:59.528Z,10.63
2019-02-05T00:25:22.649Z,11.05
2019-02-05T00:25:45.489Z,11.00
2019-02-05T00:26:08.369Z,10.65
2019-02-05T00:26:31.309Z,10.48
2019-02-05T00:26:54.269Z,11.00
2019-02-05T00:27:17.228Z,10.95
2019-02-05T00:27:40.150Z,10.82
2019-02-05T00:28:02.989Z,10.82
2019-02-05T00:28:26.051Z,10.82
2019-02-05T00:28:48.829Z,10.93
2019-02-05T00:29:11.730Z,10.82
2019-02-05T00:29:34.781Z,10.90
2019-02-05T00:29:57.849Z,11.10
2019-02-05T00:30:20.829Z,11.20
2019-02-05T00:30:43.688Z,10.95
2019-02-05T00:31:06.630Z,10.75
2019-02-05T00:31:29.728Z,11.05
2019-02-05T00:31:52.588Z,10.98
2019-02-05T00:32:15.427Z,11.10
2019-02-05T00:32:38.211Z,11.35
2019-02-05T00:33:01.128Z,10.98
2019-02-05T00:33:24.009Z,10.95
2019-02-05T00:33:46.928Z,11.50
2019-02-05T00:34:09.728Z,11.15
2019-02-05T00:34:32.669Z,11.40
2019-02-05T00:34:56.089Z,11.40
2019-02-05T00:35:18.891Z,11.85
2019-02-05T00:35:42.109Z,11.57
2019-02-05T00:36:04.889Z,11.65
2019-02-05T00:36:27.869Z,11.35
2019-02-05T00:36:50.750Z,11.65
2019-02-05T00:37:13.531Z,11.73
2019-02-05T00:37:37.009Z,11.20
2019-02-05T00:37:59.849Z,11.48
2019-02-05T00:38:22.809Z,11.38
2019-02-05T00:38:45.769Z,11.20
2019-02-05T00:39:09.829Z,11.18
2019-02-05T00:39:32.811Z,10.72
2019-02-05T00:39:55.676Z,11.35
2019-02-05T00:40:18.449Z,11.70
2019-02-05T00:40:43.689Z,10.95
2019-02-05T00:41:06.529Z,11.80
2019-02-05T00:41:29.349Z,10.98
2019-02-05T00:41:52.169Z,11.18
2019-02-05T00:42:16.768Z,11.22
2019-02-05T00:42:40.129Z,11.33
2019-02-05T00:43:02.813Z,11.22
2019-02-05T00:43:25.629Z,11.45
2019-02-05T00:43:48.549Z,11.08
2019-02-05T00:44:11.429Z,11.22
2019-02-05T00:44:34.308Z,10.70
2019-02-05T00:44:57.271Z,10.72
2019-02-05T00:45:20.288Z,10.80
2019-02-05T00:45:43.248Z,11.38
2019-02-05T00:46:06.690Z,11.45
2019-02-05T00:46:29.610Z,11.30
2019-02-05T00:46:52.569Z,11.40
2019-02-05T00:47:15.589Z,10.90
2019-02-05T00:47:38.449Z,11.10
2019-02-05T00:48:01.249Z,11.35
2019-02-05T00:48:24.768Z,10.90
2019-02-05T00:48:47.809Z,10.82
2019-02-05T00:49:11.089Z,11.14
2019-02-05T00:49:33.889Z,10.90
2019-02-05T00:49:56.769Z,11.05
2019-02-05T00:50:19.648Z,11.30
2019-02-05T00:50:42.651Z,11.40
2019-02-05T00:51:05.449Z,11.20
2019-02-05T00:51:28.309Z,11.35
2019-02-05T00:51:51.249Z,11.00
2019-02-05T00:52:14.148Z,11.25
2019-02-05T00:52:37.249Z,11.22
2019-02-05T00:53:00.088Z,11.18
2019-02-05T00:53:22.968Z,11.28
2019-02-05T00:53:45.790Z,11.20
2019-02-05T00:54:08.649Z,11.43
2019-02-05T00:54:31.528Z,10.95
2019-02-05T00:54:54.489Z,11.20
2019-02-05T00:55:17.369Z,10.63
2019-02-05T00:55:41.089Z,10.93
2019-02-05T00:56:03.928Z,11.08
2019-02-05T00:56:26.929Z,10.85
2019-02-05T00:56:49.889Z,10.88
2019-02-05T00:57:12.768Z,11.18
2019-02-05T00:57:35.689Z,10.90
2019-02-05T00:57:58.508Z,10.88
2019-02-05T00:58:21.309Z,10.58
2019-02-05T00:58:44.290Z,11.00
2019-02-05T00:59:07.648Z,11.18
2019-02-05T00:59:30.732Z,11.30
2019-02-05T00:59:53.729Z,11.00
2019-02-05T01:00:16.729Z,11.08
2019-02-05T01:00:39.568Z,11.15
2019-02-05T01:01:02.371Z,10.95
2019-02-05T01:01:25.349Z,11.50
2019-02-05T01:01:48.249Z,10.78
2019-02-05T01:02:11.311Z,11.22
2019-02-05T01:02:34.230Z,11.30
2019-02-05T01:02:57.129Z,11.20
2019-02-05T01:03:20.011Z,11.53
2019-02-05T01:03:42.828Z,11.30
2019-02-05T01:04:06.230Z,10.75
2019-02-05T01:04:29.729Z,10.60
2019-02-05T01:04:52.627Z,11.08
2019-02-05T01:05:15.388Z,10.93
2019-02-05T01:05:38.549Z,11.10
2019-02-05T01:06:01.449Z,11.33
2019-02-05T01:06:24.349Z,10.98
2019-02-05T01:06:48.004Z,10.93
2019-02-05T01:07:10.909Z,11.03
2019-02-05T01:07:34.049Z,11.00
2019-02-05T01:07:57.010Z,10.50
2019-02-05T01:08:20.116Z,11.05
2019-02-05T01:08:43.192Z,11.10
2019-02-05T01:09:06.054Z,11.30
2019-02-05T01:09:50.931Z,11.38
2019-02-05T01:10:16.329Z,11.18
2019-02-05T01:10:38.788Z,11.15
2019-02-05T01:11:04.789Z,11.10
2019-02-05T01:11:53.068Z,10.98
2019-02-05T01:12:33.229Z,11.28
2019-02-05T01:12:48.700Z,11.00
2019-02-05T01:13:21.729Z,10.98
2019-02-05T01:13:46.649Z,11.88
2019-02-05T01:15:08.949Z,11.35
2019-02-05T01:17:08.295Z,11.50
2019-02-05T01:17:53.432Z,11.22
2019-02-05T01:18:20.609Z,11.30
2019-02-05T01:18:51.611Z,11.20
2019-02-05T01:19:23.428Z,11.28
2019-02-05T01:19:46.870Z,11.40
2019-02-05T01:20:12.929Z,11.68
2019-02-05T01:20:37.608Z,11.28
2019-02-05T01:21:10.851Z,11.43
2019-02-05T01:21:36.969Z,11.93
2019-02-05T01:22:06.031Z,11.68
2019-02-05T01:22:32.629Z,11.68
2019-02-05T01:23:09.268Z,11.10
2019-02-05T01:23:26.608Z,11.30
2019-02-05T01:24:03.948Z,11.40
2019-02-05T01:24:22.989Z,11.53
2019-02-05T01:24:46.169Z,11.78
2019-02-05T01:25:09.115Z,11.75
2019-02-05T01:25:32.112Z,11.57
2019-02-05T01:25:56.611Z,11.22
2019-02-05T01:26:28.931Z,11.35
2019-02-05T01:26:43.928Z,10.98
2019-02-05T01:27:09.789Z,11.57
2019-02-05T01:27:46.330Z,11.70
2019-02-05T01:28:10.369Z,11.73
2019-02-05T01:28:33.361Z,11.55
2019-02-05T01:28:56.149Z,11.05
2019-02-05T01:29:19.150Z,11.00
2019-02-05T01:29:41.949Z,11.43
2019-02-05T01:30:04.929Z,11.53
2019-02-05T01:30:27.809Z,11.63
2019-02-05T01:30:50.867Z,11.12
2019-02-05T01:31:13.908Z,11.40
2019-02-05T01:31:36.789Z,11.50
2019-02-05T01:31:59.810Z,11.80
2019-02-05T01:32:22.588Z,11.43
2019-02-05T01:32:45.609Z,11.90
2019-02-05T01:33:08.568Z,11.53
2019-02-05T01:33:31.470Z,11.75
2019-02-05T01:33:54.508Z,11.53
2019-02-05T01:34:17.449Z,11.38
2019-02-05T01:34:40.369Z,11.73
2019-02-05T01:35:03.126Z,11.33
2019-02-05T01:35:26.152Z,11.50
2019-02-05T01:35:49.838Z,11.55
2019-02-05T01:36:12.989Z,11.70
2019-02-05T01:36:37.971Z,11.63
2019-02-05T01:37:01.642Z,11.52
2019-02-05T01:37:25.609Z,11.40
2019-02-05T01:37:50.489Z,11.40
2019-02-05T01:38:15.689Z,11.43
2019-02-05T01:38:40.292Z,11.63
2019-02-05T01:39:04.589Z,11.65
2019-02-05T01:39:28.369Z,11.88
2019-02-05T01:39:51.173Z,11.70
2019-02-05T01:40:13.988Z,12.00
2019-02-05T01:40:37.929Z,11.85
2019-02-05T01:41:00.989Z,11.55
2019-02-05T01:41:23.892Z,11.80
2019-02-05T01:41:47.649Z,11.68
2019-02-05T01:42:10.570Z,11.22
2019-02-05T01:42:33.369Z,11.40
2019-02-05T01:42:56.809Z,11.63
2019-02-05T01:43:19.728Z,11.73
2019-02-05T01:43:42.808Z,12.40
2019-02-05T01:44:06.508Z,11.75
2019-02-05T01:44:29.589Z,11.43
2019-02-05T01:44:52.611Z,11.85
2019-02-05T01:45:15.729Z,11.63
2019-02-05T01:45:38.571Z,12.20
2019-02-05T01:46:01.429Z,11.40
2019-02-05T01:46:24.649Z,11.30
2019-02-05T01:46:47.609Z,11.53
2019-02-05T01:47:10.449Z,11.40
2019-02-05T01:47:34.509Z,11.63
2019-02-05T01:47:57.489Z,12.03
2019-02-05T01:48:20.490Z,11.65
2019-02-05T01:48:43.429Z,11.45
2019-02-05T01:49:08.908Z,11.73
2019-02-05T01:49:33.589Z,11.38
2019-02-05T01:49:56.569Z,11.53
2019-02-05T01:50:19.500Z,11.18
2019-02-05T01:50:43.489Z,11.40
2019-02-05T01:51:06.368Z,11.33
2019-02-05T01:51:29.829Z,11.70
2019-02-05T01:51:52.570Z,11.73
2019-02-05T01:52:15.711Z,11.28
2019-02-05T01:52:38.949Z,11.66
2019-02-05T01:53:01.782Z,11.00
2019-02-05T01:53:26.229Z,11.68
2019-02-05T01:53:48.969Z,11.57
2019-02-05T01:54:12.431Z,11.68
2019-02-05T01:54:35.409Z,11.55
2019-02-05T01:54:58.309Z,11.22
2019-02-05T01:55:21.409Z,11.30
2019-02-05T01:55:44.369Z,12.00
2019-02-05T01:56:07.268Z,11.10
2019-02-05T01:56:40.152Z,11.28
2019-02-05T01:56:54.733Z,11.90
2019-02-05T01:57:17.548Z,11.78
2019-02-05T01:57:40.592Z,11.75
2019-02-05T01:58:04.218Z,11.93
2019-02-05T01:58:27.391Z,11.70
2019-02-05T01:58:50.257Z,11.40
2019-02-05T01:59:13.253Z,11.50
2019-02-05T01:59:38.188Z,11.53
2019-02-05T02:00:01.609Z,11.40
2019-02-05T02:00:24.707Z,11.88
2019-02-05T02:00:47.573Z,12.00
2019-02-05T02:01:10.528Z,11.75
2019-02-05T02:01:33.888Z,12.06
2019-02-05T02:01:56.869Z,11.73
2019-02-05T02:02:19.657Z,11.65
2019-02-05T02:02:42.549Z,11.65
2019-02-05T02:03:06.511Z,11.53
2019-02-05T02:03:29.369Z,11.80
2019-02-05T02:03:52.449Z,12.10
2019-02-05T02:04:15.370Z,11.53
2019-02-05T02:04:38.270Z,12.30
2019-02-05T02:05:01.257Z,12.28
2019-02-05T02:05:24.350Z,11.65
2019-02-05T02:05:47.249Z,11.55
2019-02-05T02:06:10.209Z,11.90
2019-02-05T02:06:33.729Z,11.83
2019-02-05T02:06:56.954Z,12.30
2019-02-05T02:07:19.808Z,11.97
2019-02-05T02:07:42.689Z,11.90
2019-02-05T02:08:05.709Z,12.23
2019-02-05T02:08:28.809Z,11.57
2019-02-05T02:08:51.628Z,11.93
2019-02-05T02:09:14.549Z,11.83
2019-02-05T02:09:37.489Z,11.85
2019-02-05T02:10:03.629Z,12.07
2019-02-05T02:10:27.329Z,12.05
2019-02-05T02:10:50.279Z,11.97
2019-02-05T02:11:13.189Z,12.37
2019-02-05T02:11:36.709Z,12.03
2019-02-05T02:11:59.488Z,11.85
2019-02-05T02:12:22.768Z,11.68
2019-02-05T02:12:46.627Z,11.85
2019-02-05T02:13:09.537Z,11.65
2019-02-05T02:13:34.248Z,11.73
2019-02-05T02:13:56.949Z,11.40
2019-02-05T02:14:19.809Z,11.68
2019-02-05T02:14:43.068Z,11.50
2019-02-05T02:15:06.710Z,11.95
2019-02-05T02:15:30.189Z,12.37
2019-02-05T02:15:53.469Z,11.97
2019-02-05T02:16:17.049Z,11.95
2019-02-05T02:16:40.009Z,11.88
2019-02-05T02:17:02.771Z,11.75
2019-02-05T02:17:25.867Z,12.13
2019-02-05T02:17:48.869Z,12.30
2019-02-05T02:18:11.689Z,12.25
2019-02-05T02:18:35.353Z,12.60
2019-02-05T02:18:58.428Z,12.58
2019-02-05T02:19:21.409Z,12.63
2019-02-05T02:19:44.406Z,12.00
2019-02-05T02:20:07.252Z,11.90
2019-02-05T02:20:30.249Z,11.43
2019-02-05T02:20:54.091Z,12.20
2019-02-05T02:21:16.928Z,11.60
2019-02-05T02:21:39.708Z,11.90
2019-02-05T02:22:02.750Z,11.45
2019-02-05T02:22:25.709Z,11.68
2019-02-05T02:22:48.729Z,11.50
2019-02-05T02:23:12.489Z,11.95
2019-02-05T02:23:35.409Z,11.80
2019-02-05T02:23:58.329Z,11.10
2019-02-05T02:24:21.129Z,11.20
2019-02-05T02:24:45.149Z,11.63
2019-02-05T02:25:07.969Z,11.95
2019-02-05T02:25:30.890Z,12.10
2019-02-05T02:25:54.010Z,11.75
2019-02-05T02:26:16.829Z,11.70
2019-02-05T02:26:39.969Z,11.80
2019-02-05T02:27:02.890Z,11.85
2019-02-05T02:27:25.888Z,12.43
2019-02-05T02:27:48.869Z,12.30
2019-02-05T02:28:11.968Z,11.83
2019-02-05T02:28:35.449Z,11.75
2019-02-05T02:28:58.308Z,12.10
2019-02-05T02:29:21.088Z,11.80
2019-02-05T02:29:44.128Z,11.85
2019-02-05T02:30:07.030Z,12.18
2019-02-05T02:30:30.005Z,12.05
2019-02-05T02:30:52.911Z,11.97
2019-02-05T02:31:15.649Z,12.20
2019-02-05T02:31:38.516Z,12.00
2019-02-05T02:32:01.471Z,11.53
2019-02-05T02:32:24.729Z,11.45
2019-02-05T02:32:48.452Z,12.05
2019-02-05T02:33:11.469Z,11.78
2019-02-05T02:33:34.389Z,11.63
2019-02-05T02:33:57.749Z,11.68
2019-02-05T02:34:20.657Z,11.38
2019-02-05T02:34:43.569Z,11.83
2019-02-05T02:35:06.435Z,12.13
2019-02-05T02:35:30.029Z,12.20
2019-02-05T02:35:52.868Z,11.78
2019-02-05T02:36:15.890Z,11.78
2019-02-05T02:36:38.709Z,12.05
2019-02-05T02:37:01.597Z,11.55
2019-02-05T02:37:25.328Z,11.85
2019-02-05T02:37:48.909Z,11.80
2019-02-05T02:38:12.010Z,11.95
2019-02-05T02:38:35.009Z,11.73
2019-02-05T02:38:57.972Z,11.85
2019-02-05T02:39:21.009Z,11.45
2019-02-05T02:39:44.389Z,11.88
2019-02-05T02:40:07.208Z,12.33
2019-02-05T02:40:30.270Z,12.20
2019-02-05T02:40:53.150Z,11.57
2019-02-05T02:41:16.629Z,11.40
2019-02-05T02:41:39.456Z,11.57
2019-02-05T02:42:02.231Z,11.80
2019-02-05T02:42:26.208Z,12.28
2019-02-05T02:42:49.449Z,11.57
2019-02-05T02:43:12.488Z,11.63
2019-02-05T02:43:35.437Z,11.60
2019-02-05T02:43:58.413Z,11.25
2019-02-05T02:44:21.431Z,11.25
2019-02-05T02:44:44.289Z,11.35
2019-02-05T02:45:07.650Z,11.12
2019-02-05T02:45:31.289Z,11.35
2019-02-05T02:45:55.828Z,11.43
2019-02-05T02:46:19.569Z,11.60
2019-02-05T02:46:42.988Z,11.22
2019-02-05T02:47:05.939Z,11.57
2019-02-05T02:47:28.830Z,11.57
2019-02-05T02:47:51.649Z,11.70
2019-02-05T02:48:14.569Z,11.48
2019-02-05T02:48:37.409Z,11.45
2019-02-05T02:49:00.330Z,11.38
2019-02-05T02:49:23.209Z,11.30
2019-02-05T02:49:46.248Z,11.78
2019-02-05T02:50:09.089Z,12.00
2019-02-05T02:50:31.849Z,11.40
2019-02-05T02:50:54.729Z,11.45
2019-02-05T02:51:17.569Z,11.55
2019-02-05T02:51:40.310Z,11.63
2019-02-05T02:52:03.090Z,11.65
2019-02-05T02:52:25.929Z,11.63
2019-02-05T02:52:48.770Z,11.45
2019-02-05T02:53:11.608Z,11.70
2019-02-05T02:53:34.469Z,11.78
2019-02-05T02:53:57.229Z,11.95
2019-02-05T02:54:20.290Z,12.10
2019-02-05T02:54:43.212Z,11.40
2019-02-05T02:55:06.049Z,11.20
2019-02-05T02:55:29.071Z,11.28
2019-02-05T02:55:51.990Z,11.70
2019-02-05T02:56:14.907Z,11.75
2019-02-05T02:56:37.808Z,11.73
2019-02-05T02:57:04.887Z,11.68
2019-02-05T02:57:25.389Z,11.65
2019-02-05T02:57:48.249Z,11.38
2019-02-05T02:58:13.596Z,11.12
2019-02-05T02:58:35.892Z,11.20
2019-02-05T02:58:59.009Z,11.68
2019-02-05T02:59:21.929Z,11.25
2019-02-05T02:59:44.751Z,11.25
2019-02-05T03:00:07.771Z,11.33
2019-02-05T03:00:30.688Z,11.83
2019-02-05T03:00:53.549Z,11.93
2019-02-05T03:01:17.509Z,11.00
2019-02-05T03:01:40.413Z,11.68
2019-02-05T03:02:03.271Z,12.13
2019-02-05T03:02:26.111Z,11.93
2019-02-05T03:02:49.075Z,12.25
2019-02-05T03:03:12.453Z,11.43
2019-02-05T03:03:39.830Z,11.63
2019-02-05T03:04:04.410Z,12.30
2019-02-05T03:04:29.008Z,11.53
2019-02-05T03:04:52.849Z,12.00
2019-02-05T03:05:15.881Z,12.37
2019-02-05T03:05:39.590Z,11.43
2019-02-05T03:06:02.829Z,11.60
2019-02-05T03:06:25.730Z,11.70
2019-02-05T03:06:49.228Z,11.68
2019-02-05T03:07:12.051Z,11.73
2019-02-05T03:07:34.931Z,11.48
2019-02-05T03:07:58.529Z,11.75
2019-02-05T03:08:21.409Z,11.93
2019-02-05T03:08:44.289Z,11.78
2019-02-05T03:09:09.588Z,11.55
2019-02-05T03:09:32.389Z,11.90
2019-02-05T03:09:55.333Z,12.23
2019-02-05T03:10:18.711Z,11.78
2019-02-05T03:10:41.530Z,11.55
2019-02-05T03:11:04.390Z,11.85
2019-02-05T03:11:28.090Z,12.28
2019-02-05T03:11:51.290Z,11.85
2019-02-05T03:12:14.079Z,12.03
2019-02-05T03:12:37.489Z,11.45
2019-02-05T03:13:00.255Z,11.88
2019-02-05T03:13:23.169Z,11.65
2019-02-05T03:13:46.530Z,11.83
2019-02-05T03:14:09.366Z,11.97
2019-02-05T03:14:32.144Z,11.53
2019-02-05T03:14:55.379Z,11.57
2019-02-05T03:15:18.156Z,12.07
2019-02-05T03:15:40.971Z,11.68
2019-02-05T03:16:03.770Z,12.07
2019-02-05T03:16:26.610Z,11.83
2019-02-05T03:16:49.592Z,11.43
2019-02-05T03:17:12.409Z,11.63
2019-02-05T03:17:35.249Z,11.90
2019-02-05T03:17:58.127Z,11.90
2019-02-05T03:18:20.989Z,11.95
2019-02-05T03:18:43.971Z,11.85
2019-02-05T03:19:06.948Z,11.25
2019-02-05T03:19:29.929Z,11.70
2019-02-05T03:19:56.191Z,11.90
2019-02-05T03:20:19.069Z,12.25
2019-02-05T03:20:41.898Z,12.63
2019-02-05T03:21:06.389Z,12.40
2019-02-05T03:21:30.469Z,11.85
2019-02-05T03:21:53.430Z,11.57
2019-02-05T03:22:16.216Z,11.55
2019-02-05T03:22:40.332Z,12.03
2019-02-05T03:23:03.150Z,11.83
2019-02-05T03:23:26.136Z,11.57
2019-02-05T03:23:49.075Z,11.63
2019-02-05T03:24:12.609Z,12.15
2019-02-05T03:24:35.450Z,11.70
2019-02-05T03:25:06.330Z,12.15
2019-02-05T03:25:30.432Z,11.68
2019-02-05T03:25:58.893Z,11.68
2019-02-05T03:26:27.330Z,11.73
2019-02-05T03:26:55.311Z,11.95
2019-02-05T03:27:19.369Z,12.10
2019-02-05T03:27:54.790Z,12.30
2019-02-05T03:28:08.729Z,11.75
2019-02-05T03:28:34.369Z,11.93
2019-02-05T03:29:00.929Z,12.33
2019-02-05T03:29:26.783Z,12.25
2019-02-05T03:29:50.694Z,12.07
2019-02-05T03:30:17.620Z,12.03
2019-02-05T03:30:43.751Z,11.95
2019-02-05T03:31:12.650Z,11.73
2019-02-05T03:31:45.442Z,12.45
2019-02-05T03:32:22.789Z,11.97
2019-02-05T03:32:38.031Z,12.18
2019-02-05T03:33:05.664Z,12.35
2019-02-05T03:34:16.430Z,12.50
2019-02-05T03:34:44.688Z,12.47
2019-02-05T03:35:17.199Z,12.28
2019-02-05T03:36:12.249Z,12.33
2019-02-05T03:36:19.030Z,12.00
2019-02-05T03:36:43.450Z,12.10
2019-02-05T03:37:25.369Z,11.80
2019-02-05T03:37:55.149Z,12.23
2019-02-05T03:38:20.984Z,11.38
2019-02-05T03:38:44.430Z,12.20
2019-02-05T03:39:53.271Z,11.83
2019-02-05T03:40:19.530Z,12.23
2019-02-05T03:40:44.029Z,12.40
2019-02-05T03:41:13.629Z,11.90
2019-02-05T03:41:39.594Z,11.70
2019-02-05T03:42:12.891Z,12.40
2019-02-05T03:43:23.188Z,12.30
2019-02-05T03:43:50.209Z,12.13
2019-02-05T03:44:17.909Z,11.75
2019-02-05T03:44:42.509Z,11.90
2019-02-05T03:45:06.108Z,12.65
2019-02-05T03:45:29.027Z,12.33
2019-02-05T03:45:51.868Z,12.07
2019-02-05T03:46:15.328Z,11.80
2019-02-05T03:46:38.409Z,12.25
2019-02-05T03:47:01.750Z,12.03
2019-02-05T03:47:25.290Z,12.00
2019-02-05T03:47:48.148Z,12.28
2019-02-05T03:48:11.088Z,12.95
2019-02-05T03:48:35.209Z,12.58
2019-02-05T03:48:58.130Z,12.18
2019-02-05T03:49:20.991Z,12.65
2019-02-05T03:49:44.389Z,12.15
2019-02-05T03:50:07.169Z,11.97
2019-02-05T03:50:31.500Z,11.85
2019-02-05T03:50:55.191Z,12.50
2019-02-05T03:51:19.771Z,11.55
2019-02-05T03:51:42.590Z,12.13
2019-02-05T03:52:06.467Z,12.20
2019-02-05T03:52:30.909Z,11.80
2019-02-05T03:52:54.349Z,12.03
2019-02-05T03:53:17.868Z,11.48
2019-02-05T03:53:42.289Z,11.53
2019-02-05T03:54:05.119Z,12.05
2019-02-05T03:54:28.789Z,12.60
2019-02-05T03:54:51.809Z,12.10
2019-02-05T03:55:15.129Z,12.20
2019-02-05T03:55:38.051Z,11.97
2019-02-05T03:56:01.036Z,12.25
2019-02-05T03:56:25.472Z,12.18
2019-02-05T03:56:48.369Z,12.20
2019-02-05T03:57:11.189Z,12.18
2019-02-05T03:57:33.989Z,12.00
2019-02-05T03:57:56.969Z,12.18
2019-02-05T03:58:20.031Z,12.10
2019-02-05T03:58:43.370Z,12.03
2019-02-05T03:59:10.609Z,11.95
2019-02-05T03:59:33.469Z,11.53
2019-02-05T03:59:56.490Z,12.30
2019-02-05T04:00:19.568Z,12.58
2019-02-05T04:00:42.910Z,12.45
2019-02-05T04:01:15.009Z,12.30
2019-02-05T04:01:39.589Z,12.18
2019-02-05T04:02:03.770Z,12.28
2019-02-05T04:02:27.030Z,12.00
2019-02-05T04:02:51.769Z,12.43
2019-02-05T04:03:14.750Z,12.95
2019-02-05T04:03:40.048Z,12.47
2019-02-05T04:04:02.769Z,12.33
2019-02-05T04:04:27.164Z,12.05
2019-02-05T04:04:51.188Z,12.28
2019-02-05T04:05:15.849Z,12.15
2019-02-05T04:05:38.833Z,12.28
2019-02-05T04:06:02.646Z,11.73
2019-02-05T04:06:25.607Z,12.03
2019-02-05T04:06:48.469Z,12.20
2019-02-05T04:07:11.369Z,12.25
2019-02-05T04:07:34.188Z,12.23
2019-02-05T04:07:57.029Z,12.23
2019-02-05T04:08:19.889Z,12.72
2019-02-05T04:08:42.769Z,12.82
2019-02-05T04:09:08.569Z,12.95
2019-02-05T04:09:32.432Z,12.43
2019-02-05T04:09:55.453Z,12.78
2019-02-05T04:10:18.370Z,12.60
2019-02-05T04:10:41.269Z,12.95
2019-02-05T04:11:04.128Z,12.47
2019-02-05T04:11:26.968Z,12.05
2019-02-05T04:11:49.888Z,12.00
2019-02-05T04:12:13.234Z,12.30
2019-02-05T04:12:36.808Z,12.50
2019-02-05T04:13:01.952Z,12.37
2019-02-05T04:13:25.469Z,12.25
2019-02-05T04:13:48.330Z,12.18
2019-02-05T04:14:22.050Z,11.60
2019-02-05T04:14:46.853Z,12.23
2019-02-05T04:15:11.251Z,11.93
2019-02-05T04:16:21.868Z,12.15
2019-02-05T04:16:51.628Z,12.32
2019-02-05T04:17:14.508Z,12.00
2019-02-05T04:17:40.088Z,12.10
2019-02-05T04:18:02.830Z,12.60
2019-02-05T04:18:27.009Z,12.43
2019-02-05T04:18:51.649Z,12.00
2019-02-05T04:19:19.189Z,12.65
2019-02-05T04:20:08.003Z,12.15
2019-02-05T04:20:26.509Z,12.30
2019-02-05T04:21:37.229Z,12.60
2019-02-05T04:22:02.262Z,12.55
2019-02-05T04:22:29.009Z,12.40
2019-02-05T04:23:08.009Z,12.13
2019-02-05T04:23:35.268Z,12.07
2019-02-05T04:23:57.072Z,12.68
2019-02-05T04:24:38.069Z,12.63
2019-02-05T04:25:08.049Z,12.65
2019-02-05T04:25:39.111Z,12.95
2019-02-05T04:26:09.189Z,12.35
2019-02-05T04:26:37.818Z,12.35
2019-02-05T04:27:12.068Z,12.23
2019-02-05T04:27:45.060Z,12.15
2019-02-05T04:28:03.495Z,12.23
2019-02-05T04:28:26.442Z,12.65
2019-02-05T04:28:54.338Z,12.18
2019-02-05T04:29:28.288Z,12.05
2019-02-05T04:29:54.374Z,12.98
2019-02-05T04:30:18.470Z,12.45
2019-02-05T04:30:41.428Z,12.15
2019-02-05T04:31:08.688Z,12.35
2019-02-05T04:31:35.968Z,12.33
2019-02-05T04:32:00.369Z,11.90
2019-02-05T04:32:25.149Z,11.68
2019-02-05T04:32:50.950Z,11.80
2019-02-05T04:33:20.451Z,11.78
2019-02-05T04:33:51.449Z,12.30
2019-02-05T04:34:57.950Z,11.65
2019-02-05T04:35:27.808Z,11.45
2019-02-05T04:35:54.049Z,11.18
2019-02-05T04:36:18.030Z,11.80
2019-02-05T04:36:40.852Z,11.83
2019-02-05T04:37:03.611Z,11.57
2019-02-05T04:37:26.427Z,11.73
2019-02-05T04:37:52.811Z,12.15
2019-02-05T04:38:15.689Z,11.60
2019-02-05T04:38:40.310Z,11.70
2019-02-05T04:39:05.188Z,11.35
2019-02-05T04:39:29.654Z,11.73
2019-02-05T04:40:11.071Z,12.40
2019-02-05T04:40:34.050Z,11.80
2019-02-05T04:40:56.864Z,11.70
2019-02-05T04:41:19.788Z,11.18
2019-02-05T04:41:42.650Z,12.20
2019-02-05T04:42:05.728Z,11.95
2019-02-05T04:42:28.608Z,11.95
2019-02-05T04:42:52.690Z,12.05
2019-02-05T04:43:17.056Z,12.50
2019-02-05T04:43:40.288Z,12.28
2019-02-05T04:44:03.169Z,12.25
2019-02-05T04:44:31.328Z,11.93
2019-02-05T04:45:34.103Z,11.83
2019-02-05T04:45:59.771Z,11.95
2019-02-05T04:46:27.257Z,12.03
2019-02-05T04:46:51.329Z,12.00
2019-02-05T04:47:15.789Z,12.00
2019-02-05T04:47:41.109Z,12.00
2019-02-05T04:48:10.568Z,11.83
2019-02-05T04:48:43.806Z,12.33
2019-02-05T04:49:19.429Z,11.88
2019-02-05T04:49:45.211Z,11.83
2019-02-05T04:50:09.048Z,12.10
2019-02-05T04:50:33.469Z,12.63
2019-02-05T04:50:56.449Z,12.47
2019-02-05T04:52:07.030Z,12.15
2019-02-05T04:52:29.766Z,12.53
2019-02-05T04:52:52.635Z,12.03
2019-02-05T04:53:21.111Z,11.63
2019-02-05T04:53:51.051Z,11.93
2019-02-05T04:54:17.436Z,12.20
2019-02-05T04:54:46.170Z,12.68
2019-02-05T04:55:12.189Z,11.75
2019-02-05T04:55:57.286Z,11.75
2019-02-05T04:56:32.749Z,11.68
2019-02-05T04:57:00.046Z,11.90
2019-02-05T04:57:56.667Z,11.93
2019-02-05T04:58:08.650Z,12.05
2019-02-05T04:58:50.327Z,12.20
2019-02-05T04:59:30.310Z,12.35
2019-02-05T04:59:52.849Z,12.15
2019-02-05T05:00:24.607Z,12.53
2019-02-05T05:00:58.708Z,12.23
2019-02-05T05:01:30.134Z,12.45
2019-02-05T05:02:49.889Z,12.88
2019-02-05T05:03:28.708Z,12.23
2019-02-05T05:05:27.028Z,12.23
2019-02-05T05:05:40.168Z,12.10
2019-02-05T05:06:57.718Z,12.37
2019-02-05T05:07:45.696Z,11.88
2019-02-05T05:08:11.430Z,12.05
2019-02-05T05:08:43.368Z,11.78
2019-02-05T05:09:17.368Z,11.88
2019-02-05T05:09:34.649Z,11.70
2019-02-05T05:10:01.724Z,11.50
2019-02-05T05:10:34.146Z,11.83
2019-02-05T05:11:04.168Z,11.97
2019-02-05T05:12:00.027Z,12.20
2019-02-05T05:12:16.168Z,12.23
2019-02-05T05:13:02.358Z,11.83
2019-02-05T05:13:36.548Z,12.18
2019-02-05T05:13:56.115Z,12.00
2019-02-05T05:14:34.987Z,12.13
2019-02-05T05:14:59.950Z,12.13
2019-02-05T05:15:28.328Z,12.25
2019-02-05T05:16:10.854Z,11.97
2019-02-05T05:16:54.255Z,12.33
2019-02-05T05:17:41.037Z,12.40
2019-02-05T05:18:07.769Z,12.37
2019-02-05T05:18:48.249Z,11.93
2019-02-05T05:19:15.888Z,11.97
2019-02-05T05:19:51.371Z,12.15
2019-02-05T05:21:04.548Z,12.23
2019-02-05T05:21:47.649Z,12.63
2019-02-05T05:22:16.808Z,12.43
2019-02-05T05:23:02.553Z,12.40
2019-02-05T05:23:22.371Z,12.47
2019-02-05T05:23:47.187Z,12.15
2019-02-05T05:24:14.530Z,12.80
2019-02-05T05:25:22.250Z,12.07
2019-02-05T05:25:55.109Z,11.90
2019-02-05T05:26:35.648Z,12.18
2019-02-05T05:27:03.314Z,12.30
2019-02-05T05:27:35.490Z,12.07
2019-02-05T05:28:09.676Z,12.55
2019-02-05T05:28:37.309Z,12.53
2019-02-05T05:29:10.388Z,12.55
2019-02-05T05:29:35.507Z,12.03
2019-02-05T05:30:01.116Z,12.05
2019-02-05T05:30:27.726Z,12.30
2019-02-05T05:30:54.469Z,12.33
2019-02-05T05:31:17.488Z,11.97